Latest Coastal Weather Observations for Cape Bruny AWS

IDT60701

Issued at 11:32 am EDT Friday 19 December 2014 (issued every 10 minutes, with the page automatically refreshed every 10 minutes)

About coastal observations | Map of coastal stations | Coastal observations for TAS | Marine services | Other Formats
Station Details ID: 094198 Name: CAPE BRUNY (CAPE BRUNY) Lat: -43.49 Lon: 147.14 Height: 59.7 m
Data from the previous 72 hours. | See also: Recent months at Cape Bruny AWS
Date/Time
EDT
Temp

°C
Wind Pressure Rain
since 9am
mm
Weather Cloud Vis
km
Sea
Height
m
Swell
Dir
 
Speed
knots
Gust
knots
hPa Trend Height
m
Period
s
Dir
19/11:30am 13.5 W 11 23 1011.9 - 0.4 - - - - - - -
19/11:00am 12.4 WSW 13 16 1012.1 - 0.4 - - - - - - -
19/10:45am 10.7 W 16 26 1012.1 - 0.4 - - - - - - -
19/10:30am 10.3 W 17 22 1012.1 - 0.2 - - - - - - -
19/10:10am 12.2 WSW 16 27 1012.0 - 0.0 - - - - - - -
19/10:00am 13.5 WSW 13 16 1011.9 - 0.0 - - - - - - -
19/09:30am 13.0 WSW 12 16 1012.0 - 0.0 - - - - - - -
19/09:00am 10.7 WSW 17 21 1011.9 - - - - - - - - -
19/08:30am 11.3 W 12 16 1011.6 - - - - - - - - -
19/08:00am 10.9 W 14 19 1011.0 - - - - - - - - -
19/07:30am 9.4 W 18 25 1010.5 - - - - - - - - -
19/07:00am 9.6 W 16 21 1010.3 - - - - - - - - -
19/06:30am 9.7 W 13 17 1009.8 - - - - - - - - -
19/06:00am 9.7 W 18 23 1009.5 - - - - - - - - -
19/05:30am 9.6 W 15 17 1008.8 - - - - - - - - -
19/05:00am 8.9 W 13 18 1008.6 - - - - - - - - -
19/04:50am 9.0 WSW 17 27 1008.4 - - - - - - - - -
19/04:00am 9.7 W 21 29 1007.7 - 2.4 - - - - - - -
19/03:53am 9.8 W 17 29 1007.7 - 2.4 - - - - - - -
19/03:30am 9.7 WNW 13 19 1007.7 - 2.4 - - - - - - -
19/03:00am 10.1 W 16 20 1007.6 - 2.4 - - - - - - -
19/02:30am 10.1 W 14 18 1007.5 - 2.4 - - - - - - -
19/02:00am 10.1 W 16 21 1007.3 - 2.4 - - - - - - -
19/01:30am 9.4 W 16 20 1007.2 - 2.4 - - - - - - -
19/01:20am 9.5 W 21 31 1007.1 - 2.2 - - - - - - -
19/01:00am 10.0 W 21 28 1006.8 - 1.0 - - - - - - -
19/12:53am 10.1 W 18 28 1006.7 - 1.0 - - - - - - -
19/12:30am 10.2 W 15 21 1006.5 - 1.0 - - - - - - -
19/12:00am 9.7 WSW 19 26 1006.5 - 1.0 Rain - - - - - -
 
Date/Time
EDT
Temp

°C
Wind Pressure Rain
since 9am
mm
Weather Cloud Vis
km
Sea
Height
m
Swell
Dir
 
Speed
knots
Gust
knots
hPa Trend Height
m
Period
s
Dir
18/11:30pm 11.2 WSW 19 27 1006.1 - 0.4 - - - - - - -
18/11:09pm 10.7 WSW 22 32 1005.8 - 0.4 - - - - - - -
18/11:00pm 11.0 WSW 20 25 1005.7 - 0.4 - - - - - - -
18/10:37pm 11.5 WSW 21 31 1005.7 - 0.4 - - - - - - -
18/10:30pm 12.2 WSW 21 26 1005.7 - 0.4 - - - - - - -
18/10:00pm 12.6 W 19 25 1005.2 - 0.4 - - - - - - -
18/09:30pm 12.7 W 20 25 1004.4 - 0.4 - - - - - - -
18/09:00pm 13.0 W 21 27 1003.9 - 0.4 - - - - - - -
18/08:30pm 13.2 W 18 25 1003.3 - 0.4 - - - - - - -
18/08:10pm 13.8 W 19 26 1003.1 - 0.4 - - - - - - -
18/08:00pm 14.0 WNW 20 25 1002.8 - 0.4 - - - - - - -
18/07:36pm 13.6 WNW 22 32 1002.3 - 0.4 - - - - - - -
18/07:30pm 14.0 WNW 25 33 1002.1 - 0.4 - - - - - - -
18/07:13pm 14.7 WNW 23 33 1001.7 - 0.4 - - - - - - -
18/07:00pm 15.0 WNW 24 30 1001.5 - 0.4 - - - - - - -
18/06:30pm 15.0 W 23 27 1001.0 - 0.4 - - - - - - -
18/06:00pm 15.4 W 21 25 1000.7 - 0.4 - - - - - - -
18/05:41pm 16.0 WNW 15 25 1000.5 - 0.4 - - - - - - -
18/05:30pm 15.8 WNW 10 13 1000.5 - 0.4 - - - - - - -
18/05:00pm 15.5 W 12 14 1000.3 - 0.4 - - - - - - -
18/04:30pm 14.8 W 16 23 1000.0 - 0.4 - - - - - - -
18/04:00pm 13.8 WNW 12 16 999.9 - 0.4 - - - - - - -
18/03:30pm 14.3 WNW 23 36 999.6 - 0.2 - - - - - - -
18/03:03pm 14.2 WNW 20 30 999.5 - 0.2 - - - - - - -
18/03:00pm 14.3 WNW 19 30 999.5 - 0.2 Rain - - - - - -
18/02:55pm 15.1 WNW 13 30 999.3 - 0.0 - - - - - - -
18/02:30pm 19.5 NNE 6 9 998.5 - 0.0 - - - - - - -
18/02:00pm 19.6 NE 10 14 998.9 - 0.0 - - - - - - -
18/01:30pm 19.8 NNE 10 16 999.3 - 0.0 - - - - - - -
18/01:00pm 19.4 NNW 9 14 999.6 - 0.0 - - - - - - -
18/12:30pm 18.6 NNW 11 16 1000.0 - 0.0 - - - - - - -
18/12:00pm 18.6 NW 10 14 1000.3 - 0.0 - - - - - - -
18/11:30am 18.0 N 8 14 1000.7 - 0.0 - - - - - - -
18/11:00am 18.3 NNW 11 16 1000.9 - 0.0 - - - - - - -
18/10:30am 19.7 NNW 11 18 1001.0 - 0.0 - - - - - - -
18/10:00am 17.6 N 14 19 1001.5 - 0.0 - - - - - - -
18/09:30am 16.5 NNE 10 16 1001.9 - 0.0 - - - - - - -
18/09:00am 16.2 N 11 17 1002.2 - 0.2 - - - - - - -
18/08:30am 14.5 NNE 8 12 1002.4 - 0.2 - - - - - - -
18/08:00am 14.6 NE 9 14 1002.4 - 0.2 - - - - - - -
18/07:30am 13.6 NNE 10 14 1002.5 - 0.2 - - - - - - -
18/07:00am 13.1 N 7 11 1002.6 - 0.2 - - - - - - -
18/06:30am 11.4 NNE 6 9 1002.4 - 0.2 - - - - - - -
18/06:00am 10.5 N 6 9 1002.7 - 0.2 - - - - - - -
18/05:30am 10.3 N 8 12 1002.5 - 0.2 - - - - - - -
18/05:00am 10.2 NNE 6 9 1002.5 - 0.2 - - - - - - -
18/04:30am 10.3 NNE 7 10 1002.7 - 0.2 - - - - - - -
18/04:00am 10.1 NNE 7 9 1002.8 - 0.2 - - - - - - -
18/03:30am 9.7 N 8 10 1003.0 - 0.2 - - - - - - -
18/03:00am 10.2 NNE 5 6 1003.2 - 0.2 - - - - - - -
18/02:30am 10.7 N 7 8 1003.4 - 0.2 - - - - - - -
18/02:00am 10.3 N 8 9 1003.5 - 0.2 - - - - - - -
18/01:30am 11.3 NNW 9 11 1003.9 - 0.2 - - - - - - -
18/01:00am 11.7 NNW 10 16 1004.1 - 0.2 - - - - - - -
18/12:30am 12.0 NNW 9 13 1004.4 - 0.2 - - - - - - -
18/12:00am 11.3 NNW 8 11 1004.6 - 0.2 - - - - - - -
 
Date/Time
EDT
Temp

°C
Wind Pressure Rain
since 9am
mm
Weather Cloud Vis
km
Sea
Height
m
Swell
Dir
 
Speed
knots
Gust
knots
hPa Trend Height
m
Period
s
Dir
17/11:30pm 11.3 NNE 5 8 1004.8 - 0.2 - - - - - - -
17/11:00pm 11.0 NE 4 6 1004.9 - 0.2 - - - - - - -
17/10:30pm 11.8 N 6 10 1005.5 - 0.2 - - - - - - -
17/10:00pm 12.3 N 8 11 1005.6 - 0.2 - - - - - - -
17/09:30pm 12.4 N 7 9 1005.6 - 0.2 - - - - - - -
17/09:00pm 13.4 NW 13 18 1005.0 - 0.2 - - - - - - -
17/08:30pm 13.3 NW 15 18 1004.8 - 0.2 - - - - - - -
17/08:00pm 14.0 NW 14 21 1004.8 - 0.2 - - - - - - -
17/07:30pm 13.8 NW 12 15 1004.7 - 0.2 - - - - - - -
17/07:00pm 14.1 WNW 20 24 1004.1 - 0.2 - - - - - - -
17/06:30pm 14.2 W 23 27 1003.7 - 0.2 - - - - - - -
17/06:10pm 14.3 W 25 35 1003.4 - 0.2 - - - - - - -
17/06:01pm 14.3 W 21 35 1003.3 - 0.2 - - - - - - -
17/06:00pm 14.5 W 18 35 1003.3 - 0.2 - - - - - - -
17/05:59pm 14.9 W 16 30 1003.4 - 0.2 - - - - - - -
17/05:57pm 15.0 W 14 26 1003.5 - 0.2 - - - - - - -
17/05:30pm 15.0 SW 9 14 1003.6 - 0.2 - - - - - - -
17/05:00pm 14.6 WSW 14 20 1003.5 - 0.2 - - - - - - -
17/04:30pm 14.4 WSW 18 24 1003.5 - 0.2 - - - - - - -
17/04:00pm 15.4 WSW 17 22 1003.3 - 0.2 - - - - - - -
17/03:30pm 14.8 WSW 15 21 1003.4 - 0.2 - - - - - - -
17/03:00pm 17.3 WSW 13 19 1003.4 - 0.2 - - - - - - -
17/02:30pm 17.1 WSW 14 19 1003.1 - 0.2 - - - - - - -
17/02:00pm 15.3 WSW 13 17 1003.2 - 0.2 - - - - - - -
17/01:30pm 15.4 WSW 9 13 1003.5 - 0.2 - - - - - - -
17/01:00pm 14.9 W 10 13 1003.3 - 0.2 - - - - - - -
17/12:30pm 16.1 WNW 13 17 1003.0 - 0.0 - - - - - - -
17/12:00pm 12.1 W 18 25 1002.8 - 0.0 - - - - - - -
17/11:51am 12.4 WNW 15 25 1002.6 - 0.0 - - - - - - -
17/11:30am 13.0 WNW 13 19 1002.3 - 0.0 - - - - - - -
17/11:15am 11.9 WNW 19 25 1002.1 - 0.0 - - - - - - -
17/11:00am 13.5 W 22 29 1001.8 - 0.0 - - - - - - -
17/10:30am 10.7 WSW 21 34 1001.6 - 0.0 - - - - - - -
17/10:25am 12.3 W 19 32 1001.4 - 0.0 - - - - - - -
17/10:00am 12.3 W 23 28 1001.1 - 0.0 - - - - - - -
17/09:45am 12.0 W 20 32 1001.1 - 0.0 - - - - - - -
17/09:34am 12.6 WSW 16 24 1000.9 - 0.0 - - - - - - -
17/09:30am 11.6 WSW 17 26 1001.0 - 0.0 - - - - - - -
17/09:00am 12.1 WNW 18 25 1000.6 - 10.2 - - - - - - -
17/08:30am 10.9 WNW 21 26 1000.2 - 10.2 - - - - - - -
17/08:29am 10.7 W 21 27 1000.2 - 10.2 - - - - - - -
17/08:00am 9.6 W 24 34 999.6 - 10.2 - - - - - - -
17/07:54am 9.4 WSW 22 34 999.6 - 10.2 - - - - - - -
17/07:30am 10.9 W 20 25 999.1 - 9.8 - - - - - - -
17/07:00am 9.8 W 21 27 998.3 - 9.8 - - - - - - -
17/06:34am 10.0 W 21 32 998.0 - 9.8 - - - - - - -
17/06:30am 10.7 W 20 25 997.9 - 9.8 - - - - - - -
17/06:00am 10.1 W 25 29 997.2 - 9.8 Recent precip. - - - - - -
17/05:56am 10.4 W 25 30 997.2 - 9.8 - - - - - - -
17/05:34am 10.2 W 26 39 996.8 - 9.8 - - - - - - -
17/05:31am 10.3 W 23 33 996.7 - 9.6 - - - - - - -
17/05:30am 10.2 W 22 31 996.8 - 9.6 - - - - - - -
17/05:00am 9.5 W 26 36 996.0 - 9.6 - - - - - - -
17/04:30am 11.0 W 30 41 995.1 - 9.6 - - - - - - -
17/04:03am 11.3 W 30 40 994.3 - 9.6 - - - - - - -
17/04:00am 11.3 W 28 36 994.3 - 9.6 - - - - - - -
17/03:30am 11.3 W 32 42 993.5 - 9.6 - - - - - - -
17/03:00am 10.9 W 29 39 993.1 - 9.6 Recent precip. - - - - - -
17/02:51am 10.5 W 31 40 993.1 - 9.6 - - - - - - -
17/02:47am 10.4 W 35 47 993.1 - 9.6 - - - - - - -
17/02:37am 9.9 W 40 52 992.3 - 9.6 - - - - - - -
17/02:32am 10.6 W 33 48 992.2 - 9.4 - - - - - - -
17/02:30am 11.0 W 31 47 992.1 - 9.4 - - - - - - -
17/02:06am 11.8 W 32 42 991.7 - 9.4 - - - - - - -
17/02:00am 11.6 W 33 42 991.6 - 9.4 - - - - - - -
17/01:30am 11.6 W 32 43 991.6 - 9.4 - - - - - - -
17/01:20am 11.5 W 38 48 991.3 - 9.4 - - - - - - -
17/01:17am 11.5 W 37 48 991.1 - 9.4 - - - - - - -
17/01:07am 11.2 W 28 42 991.2 - 9.4 - - - - - - -
17/01:00am 11.2 W 29 36 991.1 - 9.4 - - - - - - -
17/12:30am 10.8 W 32 39 990.8 - 9.4 - - - - - - -
17/12:23am 10.8 W 34 44 990.9 - 9.4 - - - - - - -
17/12:19am 10.9 W 33 44 990.7 - 9.4 - - - - - - -
17/12:02am 11.1 W 28 38 990.5 - 9.4 - - - - - - -
17/12:00am 11.3 W 28 37 990.6 - 9.4 Recent precip. - - - - - -
 
Date/Time
EDT
Temp

°C
Wind Pressure Rain
since 9am
mm
Weather Cloud Vis
km
Sea
Height
m
Swell
Dir
 
Speed
knots
Gust
knots
hPa Trend Height
m
Period
s
Dir
16/11:30pm 11.8 W 28 42 990.1 - 9.0 - - - - - - -
16/11:00pm 12.0 W 24 34 989.4 - 8.8 - - - - - - -
16/10:45pm 12.5 W 26 39 989.3 - 8.8 - - - - - - -
16/10:30pm 12.8 W 27 35 988.7 - 8.8 - - - - - - -
16/10:12pm 13.0 WNW 21 31 988.6 - 8.8 - - - - - - -
16/10:00pm 13.2 WNW 18 25 988.3 - 8.8 - - - - - - -
16/09:30pm 13.4 WNW 23 27 987.5 - 8.8 - - - - - - -
16/09:00pm 13.5 WNW 27 36 986.1 - 8.8 - - - - - - -
16/08:31pm 14.9 WNW 24 40 986.0 - 8.8 - - - - - - -
16/08:30pm 15.3 WNW 23 32 986.1 - 8.8 - - - - - - -
16/08:12pm 15.4 WNW 16 27 985.6 - 8.8 - - - - - - -
16/08:00pm 15.8 NW 13 18 985.3 - 8.8 - - - - - - -
16/07:30pm 15.7 NW 19 26 984.3 - 8.8 - - - - - - -
16/07:12pm 15.8 NW 19 27 984.1 - 8.8 - - - - - - -
16/07:00pm 15.3 WNW 13 19 983.6 - 8.8 - - - - - - -
16/06:30pm 14.7 NW 12 17 984.4 - 8.8 - - - - - - -
16/06:00pm 14.1 WNW 18 26 984.0 - 8.8 Recent precip. - - - - - -
16/05:30pm 14.7 SW 12 23 983.9 - 7.2 - - - - - - -
16/05:21pm 15.0 SSW 13 23 984.2 - 7.2 - - - - - - -
16/05:00pm 16.0 S 5 7 984.2 - 7.2 - - - - - - -
16/04:30pm 16.6 SSE 5 9 983.5 - 7.2 - - - - - - -
16/04:00pm 17.6 W 6 9 984.3 - 7.0 - - - - - - -
16/03:30pm 15.5 WSW 14 17 984.8 - 7.0 - - - - - - -
16/03:00pm 14.2 SSE 4 9 986.2 - 7.0 Rain - - - - - -
16/02:30pm 13.5 WSW 16 23 987.2 - 3.8 - - - - - - -
16/02:14pm 14.1 WSW 22 32 987.6 - 0.4 - - - - - - -
16/02:00pm 14.8 SW 20 28 987.3 - 0.4 - - - - - - -
16/01:50pm 15.5 SW 17 27 987.5 - 0.4 - - - - - - -
16/01:30pm 17.5 SW 12 17 987.4 - 0.4 - - - - - - -
16/01:00pm 20.0 W 9 14 987.7 - 0.4 - - - - - - -
16/12:30pm 20.7 ESE 3 5 988.5 - 0.4 - - - - - - -
16/12:00pm 19.3 ESE 7 9 989.2 - 0.4 - - - - - - -

Other Formats:

Comma delimited format used in spreadsheet applications
http://www.bom.gov.au/fwo/IDT60701/IDT60701.95967.axf

JavaScript Object Notation format (JSON) in row-major order
http://www.bom.gov.au/fwo/IDT60701/IDT60701.95967.json